createdAt,value
2019-01-13T00:00:56.136Z,33.60
2019-01-13T00:03:28.885Z,33.90
2019-01-13T00:06:01.738Z,34.00
2019-01-13T00:08:34.651Z,33.60
2019-01-13T00:11:07.565Z,33.00
2019-01-13T00:13:40.626Z,32.40
2019-01-13T00:16:13.634Z,31.90
2019-01-13T00:18:46.400Z,31.50
2019-01-13T00:21:19.313Z,31.20
2019-01-13T00:23:52.268Z,30.80
2019-01-13T00:26:26.352Z,30.40
2019-01-13T00:28:59.592Z,30.00
2019-01-13T00:31:33.373Z,29.70
2019-01-13T00:34:06.202Z,29.50
2019-01-13T00:36:39.041Z,29.20
2019-01-13T00:39:11.936Z,28.90
2019-01-13T00:41:44.869Z,28.60
2019-01-13T00:44:17.707Z,28.30
2019-01-13T00:46:50.783Z,28.20
2019-01-13T00:49:23.672Z,28.10
2019-01-13T00:51:56.660Z,28.10
2019-01-13T00:54:29.300Z,28.00
2019-01-13T00:57:02.235Z,27.90
2019-01-13T00:59:35.295Z,27.90
2019-01-13T01:02:08.191Z,27.80
2019-01-13T01:04:41.175Z,27.70
2019-01-13T01:07:14.224Z,27.60
2019-01-13T01:09:48.552Z,27.60
2019-01-13T01:12:21.703Z,27.60
2019-01-13T01:14:54.771Z,27.50
2019-01-13T01:17:27.541Z,27.50
2019-01-13T01:20:01.659Z,27.50
2019-01-13T01:22:34.340Z,27.60
2019-01-13T01:25:08.307Z,27.60
2019-01-13T01:27:41.027Z,27.60
2019-01-13T01:30:16.063Z,27.60
2019-01-13T01:32:49.659Z,27.50
2019-01-13T01:35:23.892Z,27.50
2019-01-13T01:37:57.034Z,27.50
2019-01-13T01:40:29.964Z,27.50
2019-01-13T01:43:02.940Z,27.60
2019-01-13T01:45:35.724Z,27.70
2019-01-13T01:48:08.913Z,27.80
2019-01-13T01:50:41.703Z,27.80
2019-01-13T01:53:14.679Z,27.90
2019-01-13T01:55:47.464Z,28.00
2019-01-13T01:58:20.438Z,28.10
2019-01-13T02:00:53.252Z,28.20
2019-01-13T02:03:26.306Z,28.40
2019-01-13T02:05:59.080Z,28.50
2019-01-13T02:08:32.187Z,28.50
2019-01-13T02:11:05.077Z,28.50
2019-01-13T02:13:37.976Z,28.40
2019-01-13T02:16:10.752Z,28.20
2019-01-13T02:18:43.658Z,28.20
2019-01-13T02:21:16.716Z,28.30
2019-01-13T02:23:49.507Z,28.40
2019-01-13T02:26:23.112Z,28.40
2019-01-13T02:28:55.767Z,28.50
2019-01-13T02:31:28.959Z,28.40
2019-01-13T02:34:01.851Z,28.50
2019-01-13T02:36:35.308Z,28.40
2019-01-13T02:39:09.291Z,28.30
2019-01-13T02:41:42.435Z,28.20
2019-01-13T02:44:15.109Z,28.20
2019-01-13T02:46:48.353Z,28.20
2019-01-13T02:49:21.215Z,28.20
2019-01-13T02:51:54.077Z,28.20
2019-01-13T02:54:26.992Z,28.20
2019-01-13T02:56:59.952Z,28.10
2019-01-13T02:59:32.950Z,28.00
2019-01-13T03:02:06.162Z,28.00
2019-01-13T03:04:38.723Z,28.00
2019-01-13T03:07:14.595Z,28.00
2019-01-13T03:09:46.244Z,28.00
2019-01-13T03:12:19.309Z,27.90
2019-01-13T03:14:52.109Z,27.80
2019-01-13T03:17:25.375Z,27.70
2019-01-13T03:19:58.300Z,27.70
2019-01-13T03:22:32.081Z,27.70
2019-01-13T03:25:04.959Z,27.70
2019-01-13T03:27:38.076Z,27.70
2019-01-13T03:30:12.553Z,27.70
2019-01-13T03:32:45.599Z,27.60
2019-01-13T03:35:18.494Z,27.50
2019-01-13T03:37:51.549Z,27.50
2019-01-13T03:40:25.669Z,27.50
2019-01-13T03:42:58.995Z,27.50
2019-01-13T03:45:31.845Z,27.60
2019-01-13T03:48:05.174Z,27.70
2019-01-13T03:50:38.205Z,27.70
2019-01-13T03:53:11.189Z,27.90
2019-01-13T03:55:43.980Z,27.90
2019-01-13T03:58:17.004Z,27.90
2019-01-13T04:00:49.958Z,27.90
2019-01-13T04:03:22.879Z,27.90
2019-01-13T04:05:55.751Z,27.90
2019-01-13T04:08:28.915Z,27.80
2019-01-13T04:11:01.706Z,27.70
2019-01-13T04:13:34.676Z,27.60
2019-01-13T04:16:07.458Z,27.60
2019-01-13T04:18:40.297Z,27.50
2019-01-13T04:21:13.425Z,27.50
2019-01-13T04:23:46.213Z,27.50
2019-01-13T04:26:19.006Z,27.40
2019-01-13T04:28:51.668Z,27.40
2019-01-13T04:31:26.824Z,27.40
2019-01-13T04:33:58.792Z,27.30
2019-01-13T04:36:31.748Z,27.20
2019-01-13T04:39:04.955Z,27.20
2019-01-13T04:41:38.334Z,27.10
2019-01-13T04:44:11.143Z,27.20
2019-01-13T04:46:44.447Z,27.20
2019-01-13T04:49:17.267Z,27.20
2019-01-13T04:51:50.581Z,27.20
2019-01-13T04:54:23.914Z,27.20
2019-01-13T04:56:56.896Z,27.10
2019-01-13T04:59:29.684Z,27.00
2019-01-13T05:02:02.663Z,26.90
2019-01-13T05:04:35.451Z,26.80
2019-01-13T05:07:08.424Z,26.70
2019-01-13T05:09:41.341Z,26.70
2019-01-13T05:12:14.205Z,26.60
2019-01-13T05:14:46.997Z,26.50
2019-01-13T05:17:19.797Z,26.50
2019-01-13T05:19:52.686Z,26.30
2019-01-13T05:22:25.960Z,26.30
2019-01-13T05:24:58.929Z,26.30
2019-01-13T05:27:31.712Z,26.20
2019-01-13T05:30:05.328Z,26.20
2019-01-13T05:32:39.124Z,26.20
2019-01-13T05:35:12.100Z,26.20
2019-01-13T05:37:44.890Z,26.20
2019-01-13T05:40:21.676Z,26.20
2019-01-13T05:42:54.587Z,26.10
2019-01-13T05:45:28.509Z,26.00
2019-01-13T05:48:01.219Z,26.00
2019-01-13T05:50:34.523Z,25.90
2019-01-13T05:53:07.290Z,25.90
2019-01-13T05:55:40.267Z,25.90
2019-01-13T05:58:13.066Z,25.80
2019-01-13T06:00:45.850Z,25.80
2019-01-13T06:03:18.878Z,25.80
2019-01-13T06:05:51.934Z,25.70
2019-01-13T06:08:25.109Z,25.60
2019-01-13T06:10:58.016Z,25.60
2019-01-13T06:13:30.988Z,25.50
2019-01-13T06:16:04.213Z,25.50
2019-01-13T06:18:37.456Z,25.50
2019-01-13T06:21:10.369Z,25.40
2019-01-13T06:23:43.548Z,25.40
2019-01-13T06:26:17.436Z,25.40
2019-01-13T06:28:50.544Z,25.30
2019-01-13T06:31:23.445Z,25.30
2019-01-13T06:33:56.728Z,25.30
2019-01-13T06:36:29.533Z,25.20
2019-01-13T06:39:02.705Z,25.20
2019-01-13T06:41:35.487Z,25.10
2019-01-13T06:44:08.933Z,25.10
2019-01-13T06:46:41.685Z,25.00
2019-01-13T06:49:14.998Z,24.90
2019-01-13T06:51:47.843Z,24.90
2019-01-13T06:54:21.043Z,24.80
2019-01-13T06:56:53.827Z,24.70
2019-01-13T06:59:26.796Z,24.70
2019-01-13T07:02:03.385Z,24.60
2019-01-13T07:04:34.907Z,24.60
2019-01-13T07:07:07.955Z,24.50
2019-01-13T07:09:42.104Z,24.40
2019-01-13T07:12:15.020Z,24.40
2019-01-13T07:14:47.988Z,24.30
2019-01-13T07:17:20.784Z,24.30
2019-01-13T07:19:53.759Z,24.20
2019-01-13T07:22:26.565Z,24.20
2019-01-13T07:24:59.322Z,24.20
2019-01-13T07:27:32.234Z,24.10
2019-01-13T07:30:05.139Z,24.10
2019-01-13T07:32:38.087Z,24.00
2019-01-13T07:35:10.870Z,24.00
2019-01-13T07:37:43.624Z,24.00
2019-01-13T07:40:17.910Z,24.00
2019-01-13T07:42:51.151Z,23.90
2019-01-13T07:45:24.935Z,23.90
2019-01-13T07:47:59.015Z,23.90
2019-01-13T07:50:31.867Z,23.80
2019-01-13T07:53:04.949Z,23.80
2019-01-13T07:55:37.843Z,23.80
2019-01-13T07:58:10.729Z,23.70
2019-01-13T08:00:43.614Z,23.70
2019-01-13T08:03:16.792Z,23.70
2019-01-13T08:05:49.593Z,23.60
2019-01-13T08:08:22.548Z,23.50
2019-01-13T08:10:55.346Z,23.50
2019-01-13T08:13:28.312Z,23.50
2019-01-13T08:16:01.120Z,23.40
2019-01-13T08:18:35.231Z,23.40
2019-01-13T08:21:08.235Z,23.30
2019-01-13T08:23:41.435Z,23.30
2019-01-13T08:26:14.183Z,23.30
2019-01-13T08:28:47.194Z,23.30
2019-01-13T08:31:20.067Z,23.20
2019-01-13T08:33:52.915Z,23.20
2019-01-13T08:36:25.952Z,23.20
2019-01-13T08:38:59.007Z,23.20
2019-01-13T08:41:31.803Z,23.20
2019-01-13T08:44:04.774Z,23.20
2019-01-13T08:46:37.767Z,23.20
2019-01-13T08:49:10.688Z,23.10
2019-01-13T08:51:43.656Z,23.10
2019-01-13T08:54:16.849Z,23.10
2019-01-13T08:56:49.725Z,23.10
2019-01-13T08:59:22.661Z,23.10
2019-01-13T09:01:55.488Z,23.00
2019-01-13T09:04:28.397Z,23.00
2019-01-13T09:07:01.265Z,23.00
2019-01-13T09:09:34.239Z,22.90
2019-01-13T09:12:07.015Z,22.90
2019-01-13T09:14:39.998Z,22.90
2019-01-13T09:17:12.775Z,22.90
2019-01-13T09:19:45.774Z,22.90
2019-01-13T09:22:18.761Z,22.90
2019-01-13T09:24:51.929Z,22.80
2019-01-13T09:27:26.076Z,22.80
2019-01-13T09:29:59.286Z,22.80
2019-01-13T09:32:39.158Z,22.70
2019-01-13T09:35:06.142Z,22.60
2019-01-13T09:37:39.086Z,22.60
2019-01-13T09:40:13.734Z,22.60
2019-01-13T09:42:46.729Z,22.50
2019-01-13T09:45:19.546Z,22.50
2019-01-13T09:47:52.728Z,22.40
2019-01-13T09:50:27.240Z,22.40
2019-01-13T09:53:00.300Z,22.40
2019-01-13T09:55:33.733Z,22.40
2019-01-13T09:58:06.611Z,22.30
2019-01-13T10:00:39.564Z,22.30
2019-01-13T10:03:12.488Z,22.30
2019-01-13T10:05:45.268Z,22.30
2019-01-13T10:08:18.349Z,22.30
2019-01-13T10:10:51.374Z,22.20
2019-01-13T10:13:24.527Z,22.20
2019-01-13T10:15:57.621Z,22.20
2019-01-13T10:18:30.420Z,22.20
2019-01-13T10:21:03.781Z,22.20
2019-01-13T10:23:36.600Z,22.10
2019-01-13T10:26:09.652Z,22.10
2019-01-13T10:28:42.570Z,22.10
2019-01-13T10:31:15.845Z,22.10
2019-01-13T10:33:48.746Z,22.10
2019-01-13T10:36:21.714Z,22.00
2019-01-13T10:38:54.532Z,22.00
2019-01-13T10:41:27.654Z,21.90
2019-01-13T10:44:00.688Z,21.90
2019-01-13T10:46:33.462Z,21.90
2019-01-13T10:49:06.411Z,21.90
2019-01-13T10:51:39.426Z,21.80
2019-01-13T10:54:12.241Z,21.80
2019-01-13T10:56:45.527Z,21.80
2019-01-13T10:59:18.405Z,21.80
2019-01-13T11:01:51.384Z,21.80
2019-01-13T11:04:24.367Z,21.80
2019-01-13T11:06:57.393Z,21.70
2019-01-13T11:09:30.142Z,21.70
2019-01-13T11:12:03.226Z,21.70
2019-01-13T11:14:35.999Z,21.70
2019-01-13T11:17:08.901Z,21.70
2019-01-13T11:19:41.857Z,21.60
2019-01-13T11:22:14.548Z,21.60
2019-01-13T11:24:47.729Z,21.60
2019-01-13T11:27:20.638Z,21.50
2019-01-13T11:29:53.610Z,21.50
2019-01-13T11:32:26.414Z,21.50
2019-01-13T11:34:59.504Z,21.50
2019-01-13T11:37:32.373Z,21.50
2019-01-13T11:40:05.356Z,21.40
2019-01-13T11:42:38.145Z,21.40
2019-01-13T11:45:12.202Z,21.40
2019-01-13T11:47:44.814Z,21.40
2019-01-13T11:50:20.066Z,21.40
2019-01-13T11:52:52.961Z,21.30
2019-01-13T11:55:25.620Z,21.30
2019-01-13T11:57:58.647Z,21.30
2019-01-13T12:00:33.621Z,21.20
2019-01-13T12:03:07.004Z,21.20
2019-01-13T12:05:39.939Z,21.10
2019-01-13T12:08:12.998Z,21.10
2019-01-13T12:10:46.010Z,21.10
2019-01-13T12:13:19.095Z,21.10
2019-01-13T12:15:51.763Z,21.10
2019-01-13T12:18:24.866Z,21.00
2019-01-13T12:20:57.651Z,21.00
2019-01-13T12:23:30.583Z,21.00
2019-01-13T12:26:03.603Z,20.90
2019-01-13T12:28:37.050Z,20.90
2019-01-13T12:31:09.993Z,20.90
2019-01-13T12:33:43.617Z,20.90
2019-01-13T12:36:16.702Z,20.80
2019-01-13T12:38:49.741Z,20.80
2019-01-13T12:41:22.768Z,20.80
2019-01-13T12:43:55.445Z,20.70
2019-01-13T12:46:28.538Z,20.70
2019-01-13T12:49:01.454Z,20.60
2019-01-13T12:51:34.381Z,20.60
2019-01-13T12:54:07.311Z,20.60
2019-01-13T12:56:40.701Z,20.60
2019-01-13T12:59:13.971Z,20.60
2019-01-13T13:01:47.068Z,20.60
2019-01-13T13:04:19.747Z,20.60
2019-01-13T13:06:52.651Z,20.60
2019-01-13T13:09:26.344Z,20.60
2019-01-13T13:11:59.224Z,20.60
2019-01-13T13:14:32.077Z,20.60
2019-01-13T13:17:04.997Z,20.60
2019-01-13T13:19:37.855Z,20.60
2019-01-13T13:22:10.768Z,20.60
2019-01-13T13:24:43.752Z,20.50
2019-01-13T13:27:16.561Z,20.50
2019-01-13T13:29:49.860Z,20.60
2019-01-13T13:32:22.715Z,20.50
2019-01-13T13:34:56.268Z,20.50
2019-01-13T13:37:28.983Z,20.50
2019-01-13T13:40:01.902Z,20.50
2019-01-13T13:42:34.860Z,20.50
2019-01-13T13:45:08.440Z,20.50
2019-01-13T13:47:41.520Z,20.50
2019-01-13T13:50:16.388Z,20.40
2019-01-13T13:52:49.471Z,20.40
2019-01-13T13:55:22.264Z,20.40
2019-01-13T13:57:55.394Z,20.40
2019-01-13T14:00:30.102Z,20.40
2019-01-13T14:03:03.065Z,20.40
2019-01-13T14:05:35.841Z,20.40
2019-01-13T14:10:40.297Z,20.40
2019-01-13T14:13:13.133Z,20.40
2019-01-13T14:15:46.334Z,20.40
2019-01-13T14:18:19.141Z,20.40
2019-01-13T14:20:51.993Z,20.40
2019-01-13T14:23:25.229Z,20.40
2019-01-13T14:25:58.745Z,20.40
2019-01-13T14:28:31.507Z,20.40
2019-01-13T14:31:04.474Z,20.40
2019-01-13T14:33:37.252Z,20.40
2019-01-13T14:36:10.254Z,20.40
2019-01-13T14:38:43.240Z,20.40
2019-01-13T14:41:16.187Z,20.30
2019-01-13T14:43:50.130Z,20.30
2019-01-13T14:46:23.083Z,20.30
2019-01-13T14:48:56.016Z,20.30
2019-01-13T14:51:29.104Z,20.30
2019-01-13T14:54:02.227Z,20.30
2019-01-13T14:56:35.159Z,20.30
2019-01-13T14:59:08.056Z,20.30
2019-01-13T15:01:41.643Z,20.30
2019-01-13T15:04:14.530Z,20.30
2019-01-13T15:06:47.183Z,20.30
2019-01-13T15:09:20.290Z,20.30
2019-01-13T15:11:53.070Z,20.20
2019-01-13T15:14:26.063Z,20.20
2019-01-13T15:16:59.066Z,20.30
2019-01-13T15:19:32.031Z,20.30
2019-01-13T15:22:04.709Z,20.20
2019-01-13T15:24:37.745Z,20.20
2019-01-13T15:27:10.603Z,20.20
2019-01-13T15:29:43.690Z,20.20
2019-01-13T15:32:16.559Z,20.20
2019-01-13T15:34:49.467Z,20.20
2019-01-13T15:37:22.334Z,20.20
2019-01-13T15:39:55.288Z,20.20
2019-01-13T15:42:28.104Z,20.20
2019-01-13T15:45:01.183Z,20.20
2019-01-13T15:47:34.074Z,20.20
2019-01-13T15:50:08.336Z,20.10
2019-01-13T15:52:40.949Z,20.10
2019-01-13T15:55:13.953Z,20.10
2019-01-13T15:57:47.564Z,20.10
2019-01-13T16:00:25.923Z,20.10
2019-01-13T16:02:58.643Z,20.10
2019-01-13T16:05:31.741Z,20.00
2019-01-13T16:08:04.733Z,20.00
2019-01-13T16:10:37.691Z,20.00
2019-01-13T16:13:10.509Z,20.00
2019-01-13T16:15:43.478Z,20.00
2019-01-13T16:18:16.132Z,20.00
2019-01-13T16:20:49.317Z,20.00
2019-01-13T16:23:22.129Z,20.00
2019-01-13T16:25:55.248Z,20.00
2019-01-13T16:28:28.004Z,20.00
2019-01-13T16:31:01.522Z,20.00
2019-01-13T16:33:34.387Z,20.00
2019-01-13T16:36:07.371Z,20.00
2019-01-13T16:38:40.166Z,20.00
2019-01-13T16:41:13.133Z,20.00
2019-01-13T16:43:45.814Z,20.00
2019-01-13T16:46:18.902Z,20.00
2019-01-13T16:48:51.686Z,20.00
2019-01-13T16:51:24.678Z,20.00
2019-01-13T16:53:57.451Z,20.00
2019-01-13T16:56:30.527Z,20.00
2019-01-13T16:59:03.426Z,20.00
2019-01-13T17:01:36.509Z,20.00
2019-01-13T17:04:09.703Z,20.00
2019-01-13T17:06:42.799Z,20.10
2019-01-13T17:09:15.804Z,20.10
2019-01-13T17:11:48.943Z,20.10
2019-01-13T17:14:21.644Z,20.00
2019-01-13T17:16:54.945Z,20.10
2019-01-13T17:19:27.939Z,20.10
2019-01-13T17:22:00.796Z,20.10
2019-01-13T17:24:33.720Z,20.10
2019-01-13T17:27:06.566Z,20.10
2019-01-13T17:29:39.498Z,20.00
2019-01-13T17:32:12.458Z,20.00
2019-01-13T17:34:45.270Z,20.00
2019-01-13T17:37:18.030Z,20.10
2019-01-13T17:39:51.114Z,20.10
2019-01-13T17:42:24.206Z,20.10
2019-01-13T17:44:57.008Z,20.10
2019-01-13T17:47:30.177Z,20.10
2019-01-13T17:50:04.593Z,20.10
2019-01-13T17:52:37.092Z,20.10
2019-01-13T17:55:11.894Z,20.20
2019-01-13T17:57:44.910Z,20.20
2019-01-13T18:00:20.014Z,20.20
2019-01-13T18:02:53.410Z,20.20
2019-01-13T18:05:26.903Z,20.30
2019-01-13T18:07:59.825Z,20.30
2019-01-13T18:10:32.837Z,20.30
2019-01-13T18:13:05.586Z,20.30
2019-01-13T18:15:38.561Z,20.30
2019-01-13T18:18:11.399Z,20.40
2019-01-13T18:20:44.434Z,20.40
2019-01-13T18:23:17.327Z,20.40
2019-01-13T18:25:50.201Z,20.40
2019-01-13T18:28:23.869Z,20.30
2019-01-13T18:30:57.131Z,20.40
2019-01-13T18:33:29.875Z,20.40
2019-01-13T18:36:02.856Z,20.40
2019-01-13T18:38:35.644Z,20.40
2019-01-13T18:41:08.620Z,20.40
2019-01-13T18:43:41.420Z,20.40
2019-01-13T18:46:15.101Z,20.40
2019-01-13T18:48:48.005Z,20.30
2019-01-13T18:51:20.972Z,20.30
2019-01-13T18:53:53.673Z,20.20
2019-01-13T18:56:26.752Z,20.10
2019-01-13T18:58:59.541Z,20.00
2019-01-13T19:01:32.518Z,19.90
2019-01-13T19:04:06.425Z,19.80
2019-01-13T19:06:39.513Z,19.60
2019-01-13T19:09:12.921Z,19.50
2019-01-13T19:11:45.894Z,19.40
2019-01-13T19:14:20.642Z,19.40
2019-01-13T19:16:55.571Z,19.40
2019-01-13T19:19:47.182Z,19.40
2019-01-13T19:22:20.207Z,19.40
2019-01-13T19:24:53.279Z,19.50
2019-01-13T19:27:26.143Z,19.60
2019-01-13T19:29:59.331Z,19.70
2019-01-13T19:32:32.139Z,19.70
2019-01-13T19:35:05.110Z,19.70
2019-01-13T19:37:38.094Z,19.70
2019-01-13T19:40:12.799Z,19.60
2019-01-13T19:42:45.810Z,19.40
2019-01-13T19:45:20.655Z,19.30
2019-01-13T19:47:53.527Z,19.20
2019-01-13T19:50:27.177Z,19.10
2019-01-13T19:53:00.589Z,19.10
2019-01-13T19:55:33.690Z,19.00
2019-01-13T19:58:06.520Z,18.90
2019-01-13T20:00:39.691Z,18.90
2019-01-13T20:03:12.469Z,18.90
2019-01-13T20:05:45.391Z,19.00
2019-01-13T20:08:18.242Z,19.00
2019-01-13T20:10:51.094Z,19.00
2019-01-13T20:13:25.159Z,19.00
2019-01-13T20:15:58.207Z,19.10
2019-01-13T20:18:31.011Z,19.10
2019-01-13T20:21:04.855Z,19.10
2019-01-13T20:23:37.606Z,19.10
2019-01-13T20:26:10.794Z,19.10
2019-01-13T20:28:43.555Z,19.10
2019-01-13T20:31:16.571Z,19.10
2019-01-13T20:33:49.740Z,19.00
2019-01-13T20:36:22.711Z,19.00
2019-01-13T20:38:55.399Z,18.90
2019-01-13T20:41:28.361Z,18.90
2019-01-13T20:44:02.502Z,18.90
2019-01-13T20:46:35.703Z,18.90
2019-01-13T20:49:08.573Z,18.90
2019-01-13T20:51:41.761Z,18.90
2019-01-13T20:54:14.670Z,19.00
2019-01-13T20:56:47.820Z,19.00
2019-01-13T20:59:20.636Z,19.00
2019-01-13T21:01:53.703Z,19.10
2019-01-13T21:04:27.749Z,19.10
2019-01-13T21:07:00.845Z,19.20
2019-01-13T21:09:33.636Z,19.10
2019-01-13T21:12:06.884Z,19.10
2019-01-13T21:14:39.777Z,19.10
2019-01-13T21:17:12.582Z,19.20
2019-01-13T21:19:45.534Z,19.30
2019-01-13T21:22:18.542Z,19.30
2019-01-13T21:25:11.450Z,19.30
2019-01-13T21:27:44.374Z,19.20
2019-01-13T21:30:22.571Z,19.10
2019-01-13T21:32:56.558Z,19.10
2019-01-13T21:35:33.855Z,19.20
2019-01-13T21:38:03.376Z,19.20
2019-01-13T21:40:36.400Z,19.10
2019-01-13T21:43:09.268Z,19.10
2019-01-13T21:45:42.232Z,19.10
2019-01-13T21:48:15.042Z,19.00
2019-01-13T21:50:48.321Z,18.90
2019-01-13T21:53:21.233Z,18.80
2019-01-13T21:55:54.606Z,18.80
2019-01-13T21:58:27.402Z,18.70
2019-01-13T22:01:00.572Z,18.70
2019-01-13T22:03:33.437Z,18.70
2019-01-13T22:06:06.342Z,18.70
2019-01-13T22:08:40.285Z,18.70
2019-01-13T22:11:13.444Z,18.40
2019-01-13T22:13:46.265Z,18.20
2019-01-13T22:16:19.344Z,18.20
2019-01-13T22:18:51.910Z,18.20
2019-01-13T22:21:25.908Z,18.20
2019-01-13T22:23:58.752Z,18.10
2019-01-13T22:26:33.005Z,18.10
2019-01-13T22:29:06.917Z,18.10
2019-01-13T22:31:39.885Z,18.00
2019-01-13T22:34:13.173Z,17.90
2019-01-13T22:36:46.077Z,17.70
2019-01-13T22:39:20.380Z,17.60
2019-01-13T22:41:53.511Z,17.60
2019-01-13T22:44:26.475Z,17.50
2019-01-13T22:46:59.295Z,17.50
2019-01-13T22:49:33.740Z,17.50
2019-01-13T22:52:06.661Z,17.60
2019-01-13T22:54:39.848Z,17.90
2019-01-13T22:57:12.973Z,18.10
2019-01-13T22:59:45.958Z,18.20
2019-01-13T23:02:19.043Z,18.40
2019-01-13T23:04:53.634Z,18.50
2019-01-13T23:07:26.521Z,18.50
2019-01-13T23:09:59.815Z,18.40
2019-01-13T23:12:33.221Z,18.50
2019-01-13T23:15:06.280Z,18.50
2019-01-13T23:17:39.319Z,18.60
2019-01-13T23:20:13.540Z,18.60
2019-01-13T23:22:46.385Z,18.50
2019-01-13T23:25:19.373Z,18.40
2019-01-13T23:27:52.276Z,18.60
2019-01-13T23:30:25.328Z,19.10
2019-01-13T23:32:58.320Z,20.00
2019-01-13T23:35:31.200Z,20.70
2019-01-13T23:38:04.100Z,21.30
2019-01-13T23:40:37.093Z,21.80
2019-01-13T23:43:09.862Z,22.20
2019-01-13T23:45:42.853Z,22.50
2019-01-13T23:48:15.837Z,22.90
2019-01-13T23:50:48.828Z,23.10
2019-01-13T23:53:21.876Z,23.40
2019-01-13T23:55:55.588Z,23.70
2019-01-13T23:58:28.629Z,24.00
